createdAt,value
2022-08-30T09:30:59.715Z,58.03
2022-08-30T09:33:29.023Z,58.07
2022-08-30T09:35:56.212Z,57.66
2022-08-30T09:38:23.058Z,57.61
2022-08-30T09:40:54.393Z,57.38
2022-08-30T09:43:34.359Z,57.17
2022-08-30T09:46:01.498Z,57.09
2022-08-30T09:48:44.403Z,56.90
2022-08-30T09:51:11.676Z,56.80
2022-08-30T09:54:16.592Z,56.75
2022-08-30T09:57:12.752Z,56.77
2022-08-30T09:59:46.192Z,56.63
2022-08-30T10:02:25.436Z,56.35
2022-08-30T10:04:58.100Z,56.22
2022-08-30T10:10:28.456Z,56.35
2022-08-30T10:13:05.696Z,56.33
2022-08-30T10:15:35.947Z,56.54
2022-08-30T10:18:43.330Z,56.11
2022-08-30T10:21:19.453Z,56.27
2022-08-30T10:23:49.666Z,56.19
2022-08-30T10:26:29.997Z,55.93
2022-08-30T10:29:04.042Z,56.31
2022-08-30T10:31:52.619Z,56.11
2022-08-30T10:34:27.873Z,55.71
2022-08-30T10:36:58.707Z,56.19
2022-08-30T10:39:27.253Z,55.94
2022-08-30T10:42:06.101Z,56.05
2022-08-30T10:44:37.178Z,55.90
2022-08-30T10:47:32.228Z,55.73
2022-08-30T10:50:41.319Z,55.62
2022-08-30T10:53:25.561Z,55.63
2022-08-30T10:55:56.958Z,56.06
2022-08-30T10:58:24.104Z,55.63
2022-08-30T11:01:03.939Z,55.52
2022-08-30T11:03:47.824Z,55.63
2022-08-30T11:06:26.211Z,55.60
2022-08-30T11:09:09.051Z,55.74
2022-08-30T11:11:40.782Z,55.49
2022-08-30T11:14:08.070Z,55.47
2022-08-30T11:16:40.208Z,55.63
2022-08-30T11:19:34.887Z,55.55
2022-08-30T11:22:21.704Z,55.51
2022-08-30T11:25:10.187Z,55.30
2022-08-30T11:27:40.162Z,55.61
2022-08-30T11:30:25.835Z,55.50
2022-08-30T11:32:59.610Z,55.28
2022-08-30T11:35:50.006Z,55.43
2022-08-30T11:38:41.330Z,55.17
2022-08-30T11:41:30.046Z,55.47
2022-08-30T11:43:57.499Z,55.19
2022-08-30T11:46:27.196Z,55.15
2022-08-30T11:48:55.682Z,55.38
2022-08-30T11:51:58.229Z,55.14
2022-08-30T11:54:39.493Z,55.25
2022-08-30T11:57:12.490Z,55.31
2022-08-30T12:00:08.989Z,55.24
2022-08-30T12:02:59.320Z,55.16
2022-08-30T12:05:41.341Z,54.96
2022-08-30T12:08:20.446Z,55.08
2022-08-30T12:10:53.165Z,55.25
2022-08-30T12:13:37.986Z,55.11
2022-08-30T12:16:15.133Z,55.27
2022-08-30T12:18:50.803Z,55.12
2022-08-30T12:21:21.389Z,55.26
2022-08-30T12:23:54.783Z,54.95
2022-08-30T12:26:25.629Z,54.98
2022-08-30T12:28:54.105Z,55.01
2022-08-30T12:31:23.377Z,55.19
2022-08-30T12:34:01.069Z,55.15
2022-08-30T12:36:49.467Z,55.02
2022-08-30T12:39:19.699Z,55.15
2022-08-30T12:41:46.614Z,54.92
2022-08-30T12:44:19.886Z,55.01
2022-08-30T12:46:49.334Z,55.08
2022-08-30T12:49:16.868Z,54.92
2022-08-30T12:51:44.139Z,54.81
2022-08-30T12:54:20.364Z,55.04
2022-08-30T12:56:55.388Z,54.97
2022-08-30T12:59:59.619Z,54.79
2022-08-30T13:02:42.158Z,54.69
2022-08-30T13:05:34.951Z,54.87
2022-08-30T13:08:26.605Z,54.77
2022-08-30T13:11:07.313Z,54.61
2022-08-30T13:13:45.227Z,54.87
2022-08-30T13:16:19.165Z,54.73
2022-08-30T13:18:46.844Z,54.89
2022-08-30T13:21:31.987Z,54.71
2022-08-30T13:24:01.006Z,54.93
2022-08-30T13:26:30.261Z,54.77
2022-08-30T13:29:01.897Z,54.80
2022-08-30T13:31:29.381Z,54.92
2022-08-30T13:33:57.227Z,55.13
2022-08-30T13:36:31.803Z,54.97
2022-08-30T13:38:59.417Z,54.70
2022-08-30T13:41:26.390Z,54.83
2022-08-30T13:44:13.870Z,54.66
2022-08-30T13:46:43.074Z,54.57
2022-08-30T13:52:20.320Z,54.55
2022-08-30T13:54:52.057Z,54.57
2022-08-30T14:00:12.098Z,54.53
2022-08-30T14:02:44.169Z,54.52
2022-08-30T14:05:25.439Z,54.36
2022-08-30T14:08:00.371Z,54.50
2022-08-30T14:10:32.064Z,54.15
2022-08-30T14:13:07.762Z,54.25
2022-08-30T14:15:35.219Z,54.26
2022-08-30T14:18:05.989Z,54.24
2022-08-30T14:20:33.445Z,54.31
2022-08-30T14:23:00.353Z,54.25
2022-08-30T14:25:28.862Z,54.37
2022-08-30T14:27:56.428Z,54.15
2022-08-30T14:30:23.779Z,54.21
2022-08-30T14:32:50.702Z,54.03
2022-08-30T14:35:19.466Z,53.94
2022-08-30T14:37:49.427Z,53.85
2022-08-30T14:40:16.626Z,53.92
2022-08-30T14:42:43.615Z,53.86
2022-08-30T14:45:11.481Z,53.50
2022-08-30T14:47:38.379Z,53.67
2022-08-30T14:50:06.193Z,52.44
2022-08-30T14:52:33.851Z,51.60
2022-08-30T14:55:08.496Z,51.53
2022-08-30T14:57:36.136Z,51.65
2022-08-30T15:00:26.249Z,51.75
2022-08-30T15:02:54.250Z,51.88
2022-08-30T15:05:21.235Z,51.81
2022-08-30T15:07:50.984Z,51.87
2022-08-30T15:10:20.260Z,51.72
2022-08-30T15:12:48.686Z,52.05
2022-08-30T15:15:17.221Z,52.08
2022-08-30T15:17:44.948Z,52.25
2022-08-30T15:20:12.674Z,52.17
2022-08-30T15:22:39.696Z,52.24
2022-08-30T15:25:08.525Z,52.26
2022-08-30T15:32:37.556Z,52.34
2022-08-30T15:35:05.374Z,52.21
2022-08-30T15:37:34.952Z,52.03
2022-08-30T15:40:04.600Z,52.54
2022-08-30T15:42:32.314Z,52.38
2022-08-30T15:44:59.995Z,50.85
2022-08-30T15:47:26.902Z,50.04
2022-08-30T15:49:57.631Z,49.98
2022-08-30T15:52:25.282Z,48.95
2022-08-30T15:54:52.366Z,49.25
2022-08-30T15:57:21.445Z,48.66
2022-08-30T15:59:48.498Z,48.43
2022-08-30T16:02:15.650Z,48.97
2022-08-30T16:04:43.930Z,48.76
2022-08-30T16:07:10.975Z,49.42
2022-08-30T16:09:38.400Z,49.94
2022-08-30T16:12:08.393Z,49.91
2022-08-30T16:14:36.962Z,49.86
2022-08-30T16:17:04.862Z,49.43
2022-08-30T16:19:31.873Z,49.44
2022-08-30T16:21:58.779Z,49.64
2022-08-30T16:24:26.172Z,49.35
2022-08-30T16:26:53.166Z,49.49
2022-08-30T16:29:20.144Z,49.95
2022-08-30T16:31:47.460Z,49.67
2022-08-30T16:34:15.979Z,49.88
2022-08-30T16:36:43.157Z,50.12
2022-08-30T16:39:11.169Z,50.04
2022-08-30T16:41:38.995Z,50.18
2022-08-30T16:44:06.264Z,50.16
2022-08-30T16:46:33.573Z,49.80
2022-08-30T16:49:02.418Z,50.14
2022-08-30T16:51:30.214Z,49.74
2022-08-30T16:53:58.260Z,49.77
2022-08-30T16:56:26.532Z,50.19
2022-08-30T16:59:01.221Z,49.77
2022-08-30T17:01:28.925Z,50.20
2022-08-30T17:03:55.926Z,50.12
2022-08-30T17:06:23.185Z,49.76
2022-08-30T17:08:56.122Z,49.97
2022-08-30T17:11:23.835Z,49.82
2022-08-30T17:13:50.904Z,50.13
2022-08-30T17:16:27.386Z,50.35
2022-08-30T17:18:55.234Z,50.10
2022-08-30T17:21:22.183Z,50.26
2022-08-30T17:23:50.238Z,50.08
2022-08-30T17:26:18.432Z,50.36
2022-08-30T17:28:45.887Z,50.25
2022-08-30T17:31:12.855Z,50.47
2022-08-30T17:33:45.469Z,50.47
2022-08-30T17:36:13.077Z,50.52
2022-08-30T17:38:45.087Z,50.80
2022-08-30T17:41:13.005Z,50.98
2022-08-30T17:43:40.256Z,50.67
2022-08-30T17:46:08.795Z,50.66
2022-08-30T17:48:36.905Z,50.85
